sensor_id;sensor_type;location;lat;lon;timestamp;temperature;humidity
44647;DHT22;56315;-33.902;151.160;2023-03-24T00:01:54;27.90;99.90
44647;DHT22;56315;-33.902;151.160;2023-03-24T00:04:22;28.60;99.90
44647;DHT22;56315;-33.902;151.160;2023-03-24T00:06:53;28.80;99.90
44647;DHT22;56315;-33.902;151.160;2023-03-24T00:09:20;28.80;99.90
44647;DHT22;56315;-33.902;151.160;2023-03-24T00:11:47;28.30;99.90
44647;DHT22;56315;-33.902;151.160;2023-03-24T00:14:14;27.90;99.90
44647;DHT22;56315;-33.902;151.160;2023-03-24T00:16:42;27.50;99.90
44647;DHT22;56315;-33.902;151.160;2023-03-24T00:19:10;27.30;99.90
44647;DHT22;56315;-33.902;151.160;2023-03-24T00:21:42;27.30;99.90
44647;DHT22;56315;-33.902;151.160;2023-03-24T00:24:10;27.90;99.90
44647;DHT22;56315;-33.902;151.160;2023-03-24T00:26:39;29.10;99.90
44647;DHT22;56315;-33.902;151.160;2023-03-24T00:29:09;30.20;99.90
44647;DHT22;56315;-33.902;151.160;2023-03-24T00:31:37;31.20;99.90
44647;DHT22;56315;-33.902;151.160;2023-03-24T00:34:08;31.90;99.90
44647;DHT22;56315;-33.902;151.160;2023-03-24T00:36:36;32.70;99.90
44647;DHT22;56315;-33.902;151.160;2023-03-24T00:39:04;33.30;99.90
44647;DHT22;56315;-33.902;151.160;2023-03-24T00:41:32;33.30;99.90
44647;DHT22;56315;-33.902;151.160;2023-03-24T00:44:00;33.40;99.90
44647;DHT22;56315;-33.902;151.160;2023-03-24T00:46:35;33.50;99.90
44647;DHT22;56315;-33.902;151.160;2023-03-24T00:49:06;33.50;99.90
44647;DHT22;56315;-33.902;151.160;2023-03-24T00:51:39;33.90;99.90
44647;DHT22;56315;-33.902;151.160;2023-03-24T00:54:08;33.90;99.90
44647;DHT22;56315;-33.902;151.160;2023-03-24T00:56:37;33.70;99.90
44647;DHT22;56315;-33.902;151.160;2023-03-24T00:59:06;33.80;99.90
44647;DHT22;56315;-33.902;151.160;2023-03-24T01:01:35;33.30;99.90
44647;DHT22;56315;-33.902;151.160;2023-03-24T01:04:05;33.10;99.90
44647;DHT22;56315;-33.902;151.160;2023-03-24T01:06:34;32.90;99.90
44647;DHT22;56315;-33.902;151.160;2023-03-24T01:09:02;32.50;99.90
44647;DHT22;56315;-33.902;151.160;2023-03-24T01:11:37;32.20;99.90
44647;DHT22;56315;-33.902;151.160;2023-03-24T01:14:05;31.30;99.90
44647;DHT22;56315;-33.902;151.160;2023-03-24T01:16:32;30.40;99.90
44647;DHT22;56315;-33.902;151.160;2023-03-24T01:19:00;30.30;99.90
44647;DHT22;56315;-33.902;151.160;2023-03-24T01:21:27;30.60;99.90
44647;DHT22;56315;-33.902;151.160;2023-03-24T01:23:54;31.10;99.90
44647;DHT22;56315;-33.902;151.160;2023-03-24T01:26:22;31.10;99.90
44647;DHT22;56315;-33.902;151.160;2023-03-24T01:28:49;30.90;99.90
44647;DHT22;56315;-33.902;151.160;2023-03-24T01:31:16;31.10;99.90
44647;DHT22;56315;-33.902;151.160;2023-03-24T01:33:43;31.60;99.90
44647;DHT22;56315;-33.902;151.160;2023-03-24T01:36:11;31.70;99.90
44647;DHT22;56315;-33.902;151.160;2023-03-24T01:38:38;31.60;99.90
44647;DHT22;56315;-33.902;151.160;2023-03-24T01:41:06;31.60;99.90
44647;DHT22;56315;-33.902;151.160;2023-03-24T01:43:34;31.60;99.90
44647;DHT22;56315;-33.902;151.160;2023-03-24T01:49:05;31.50;99.90
44647;DHT22;56315;-33.902;151.160;2023-03-24T01:51:56;31.60;99.90
44647;DHT22;56315;-33.902;151.160;2023-03-24T01:54:35;31.80;99.90
44647;DHT22;56315;-33.902;151.160;2023-03-24T01:57:22;31.80;99.90
44647;DHT22;56315;-33.902;151.160;2023-03-24T01:59:53;31.70;99.90
44647;DHT22;56315;-33.902;151.160;2023-03-24T02:02:21;31.60;99.90
44647;DHT22;56315;-33.902;151.160;2023-03-24T02:05:01;31.30;99.90
44647;DHT22;56315;-33.902;151.160;2023-03-24T02:10:12;31.00;99.90
44647;DHT22;56315;-33.902;151.160;2023-03-24T02:12:41;30.60;99.90
44647;DHT22;56315;-33.902;151.160;2023-03-24T02:15:11;30.50;99.90
44647;DHT22;56315;-33.902;151.160;2023-03-24T02:17:53;30.50;99.90
44647;DHT22;56315;-33.902;151.160;2023-03-24T02:20:43;30.90;99.90
44647;DHT22;56315;-33.902;151.160;2023-03-24T02:23:32;31.30;99.90
44647;DHT22;56315;-33.902;151.160;2023-03-24T02:43:05;31.60;99.90
44647;DHT22;56315;-33.902;151.160;2023-03-24T02:51:34;31.30;99.90
44647;DHT22;56315;-33.902;151.160;2023-03-24T02:54:13;30.80;99.90
44647;DHT22;56315;-33.902;151.160;2023-03-24T02:56:48;30.40;99.90
44647;DHT22;56315;-33.902;151.160;2023-03-24T03:00:00;30.20;99.90
44647;DHT22;56315;-33.902;151.160;2023-03-24T03:02:38;30.00;99.90
44647;DHT22;56315;-33.902;151.160;2023-03-24T03:05:17;29.60;99.90
44647;DHT22;56315;-33.902;151.160;2023-03-24T03:07:46;29.30;99.90
44647;DHT22;56315;-33.902;151.160;2023-03-24T03:10:14;29.10;99.90
44647;DHT22;56315;-33.902;151.160;2023-03-24T03:12:45;29.00;99.90
44647;DHT22;56315;-33.902;151.160;2023-03-24T03:15:21;28.90;99.90
44647;DHT22;56315;-33.902;151.160;2023-03-24T03:18:16;28.60;99.90
44647;DHT22;56315;-33.902;151.160;2023-03-24T03:20:50;28.60;99.90
44647;DHT22;56315;-33.902;151.160;2023-03-24T03:23:22;28.70;99.90
44647;DHT22;56315;-33.902;151.160;2023-03-24T03:25:54;28.60;99.90
44647;DHT22;56315;-33.902;151.160;2023-03-24T03:28:24;28.50;99.90
44647;DHT22;56315;-33.902;151.160;2023-03-24T03:30:58;28.40;99.90
44647;DHT22;56315;-33.902;151.160;2023-03-24T03:39:32;27.60;99.90
44647;DHT22;56315;-33.902;151.160;2023-03-24T03:42:01;27.40;99.90
44647;DHT22;56315;-33.902;151.160;2023-03-24T03:44:29;27.30;99.90
44647;DHT22;56315;-33.902;151.160;2023-03-24T03:46:57;27.30;99.90
44647;DHT22;56315;-33.902;151.160;2023-03-24T03:49:24;27.20;99.90
44647;DHT22;56315;-33.902;151.160;2023-03-24T03:51:52;27.00;99.90
44647;DHT22;56315;-33.902;151.160;2023-03-24T03:54:21;26.90;99.90
44647;DHT22;56315;-33.902;151.160;2023-03-24T03:56:50;27.00;99.90
44647;DHT22;56315;-33.902;151.160;2023-03-24T03:59:37;27.10;99.90
44647;DHT22;56315;-33.902;151.160;2023-03-24T04:04:57;27.40;99.90
44647;DHT22;56315;-33.902;151.160;2023-03-24T04:15:39;26.80;99.90
44647;DHT22;56315;-33.902;151.160;2023-03-24T04:18:16;26.70;99.90
44647;DHT22;56315;-33.902;151.160;2023-03-24T04:26:56;26.50;99.90
44647;DHT22;56315;-33.902;151.160;2023-03-24T04:29:37;26.40;99.90
44647;DHT22;56315;-33.902;151.160;2023-03-24T04:32:28;26.30;99.90
44647;DHT22;56315;-33.902;151.160;2023-03-24T04:35:01;26.30;99.90
44647;DHT22;56315;-33.902;151.160;2023-03-24T04:37:34;26.30;99.90
44647;DHT22;56315;-33.902;151.160;2023-03-24T04:40:10;26.20;99.90
44647;DHT22;56315;-33.902;151.160;2023-03-24T04:42:42;26.30;99.90
44647;DHT22;56315;-33.902;151.160;2023-03-24T04:45:11;26.30;99.90
44647;DHT22;56315;-33.902;151.160;2023-03-24T04:47:44;26.30;99.90
44647;DHT22;56315;-33.902;151.160;2023-03-24T04:50:13;26.30;99.90
44647;DHT22;56315;-33.902;151.160;2023-03-24T04:52:41;26.30;99.90
44647;DHT22;56315;-33.902;151.160;2023-03-24T04:57:57;26.30;99.90
44647;DHT22;56315;-33.902;151.160;2023-03-24T05:00:25;26.30;99.90
44647;DHT22;56315;-33.902;151.160;2023-03-24T05:02:53;26.30;99.90
44647;DHT22;56315;-33.902;151.160;2023-03-24T05:05:20;26.30;99.90
44647;DHT22;56315;-33.902;151.160;2023-03-24T05:07:47;26.30;99.90
44647;DHT22;56315;-33.902;151.160;2023-03-24T05:10:15;26.30;99.90
44647;DHT22;56315;-33.902;151.160;2023-03-24T05:12:43;26.30;99.90
44647;DHT22;56315;-33.902;151.160;2023-03-24T05:15:11;26.20;99.90
44647;DHT22;56315;-33.902;151.160;2023-03-24T05:17:39;26.20;99.90
44647;DHT22;56315;-33.902;151.160;2023-03-24T05:20:07;26.30;99.90
44647;DHT22;56315;-33.902;151.160;2023-03-24T05:22:38;26.40;99.90
44647;DHT22;56315;-33.902;151.160;2023-03-24T05:25:06;26.60;99.90
44647;DHT22;56315;-33.902;151.160;2023-03-24T05:27:33;26.80;99.90
44647;DHT22;56315;-33.902;151.160;2023-03-24T05:30:00;26.70;99.90
44647;DHT22;56315;-33.902;151.160;2023-03-24T05:32:28;26.80;99.90
44647;DHT22;56315;-33.902;151.160;2023-03-24T05:34:55;26.70;99.90
44647;DHT22;56315;-33.902;151.160;2023-03-24T05:37:22;26.60;99.90
44647;DHT22;56315;-33.902;151.160;2023-03-24T05:39:49;26.60;99.90
44647;DHT22;56315;-33.902;151.160;2023-03-24T05:42:17;26.60;99.90
44647;DHT22;56315;-33.902;151.160;2023-03-24T05:44:44;26.50;99.90
44647;DHT22;56315;-33.902;151.160;2023-03-24T05:47:13;26.50;99.90
44647;DHT22;56315;-33.902;151.160;2023-03-24T05:49:42;26.40;99.90
44647;DHT22;56315;-33.902;151.160;2023-03-24T05:52:10;26.30;99.90
44647;DHT22;56315;-33.902;151.160;2023-03-24T05:54:38;26.20;99.90
44647;DHT22;56315;-33.902;151.160;2023-03-24T05:57:06;26.10;99.90
44647;DHT22;56315;-33.902;151.160;2023-03-24T05:59:37;26.00;99.90
44647;DHT22;56315;-33.902;151.160;2023-03-24T06:02:04;25.90;99.90
44647;DHT22;56315;-33.902;151.160;2023-03-24T06:04:32;25.90;99.90
44647;DHT22;56315;-33.902;151.160;2023-03-24T06:06:59;25.80;99.90
44647;DHT22;56315;-33.902;151.160;2023-03-24T06:09:29;25.80;99.90
44647;DHT22;56315;-33.902;151.160;2023-03-24T06:11:59;25.60;99.90
44647;DHT22;56315;-33.902;151.160;2023-03-24T06:14:26;25.60;99.90
44647;DHT22;56315;-33.902;151.160;2023-03-24T06:16:55;25.60;99.90
44647;DHT22;56315;-33.902;151.160;2023-03-24T06:19:28;25.60;99.90
44647;DHT22;56315;-33.902;151.160;2023-03-24T06:21:57;25.60;99.90
44647;DHT22;56315;-33.902;151.160;2023-03-24T06:24:26;25.60;99.90
44647;DHT22;56315;-33.902;151.160;2023-03-24T06:26:54;25.50;99.90
44647;DHT22;56315;-33.902;151.160;2023-03-24T06:29:28;25.30;99.90
44647;DHT22;56315;-33.902;151.160;2023-03-24T06:31:56;25.20;99.90
44647;DHT22;56315;-33.902;151.160;2023-03-24T06:34:23;25.10;99.90
44647;DHT22;56315;-33.902;151.160;2023-03-24T06:36:51;25.10;99.90
44647;DHT22;56315;-33.902;151.160;2023-03-24T06:39:19;25.00;99.90
44647;DHT22;56315;-33.902;151.160;2023-03-24T06:41:47;24.90;99.90
44647;DHT22;56315;-33.902;151.160;2023-03-24T06:44:14;24.90;99.90
44647;DHT22;56315;-33.902;151.160;2023-03-24T06:46:41;24.90;99.90
44647;DHT22;56315;-33.902;151.160;2023-03-24T06:49:11;24.80;99.90
44647;DHT22;56315;-33.902;151.160;2023-03-24T06:51:38;24.70;99.90
44647;DHT22;56315;-33.902;151.160;2023-03-24T06:54:05;24.70;99.90
44647;DHT22;56315;-33.902;151.160;2023-03-24T06:56:33;24.60;99.90
44647;DHT22;56315;-33.902;151.160;2023-03-24T06:59:00;24.50;99.90
44647;DHT22;56315;-33.902;151.160;2023-03-24T07:01:27;24.50;99.90
44647;DHT22;56315;-33.902;151.160;2023-03-24T07:03:55;24.40;99.90
44647;DHT22;56315;-33.902;151.160;2023-03-24T07:06:22;24.30;99.90
44647;DHT22;56315;-33.902;151.160;2023-03-24T07:08:50;24.20;99.90
44647;DHT22;56315;-33.902;151.160;2023-03-24T07:11:17;24.20;99.90
44647;DHT22;56315;-33.902;151.160;2023-03-24T07:13:45;24.20;99.90
44647;DHT22;56315;-33.902;151.160;2023-03-24T07:16:12;24.20;99.90
44647;DHT22;56315;-33.902;151.160;2023-03-24T07:18:40;24.10;99.90
44647;DHT22;56315;-33.902;151.160;2023-03-24T07:21:07;24.10;99.90
44647;DHT22;56315;-33.902;151.160;2023-03-24T07:23:34;24.10;99.90
44647;DHT22;56315;-33.902;151.160;2023-03-24T07:26:02;24.00;99.90
44647;DHT22;56315;-33.902;151.160;2023-03-24T07:28:29;24.00;99.90
44647;DHT22;56315;-33.902;151.160;2023-03-24T07:30:56;23.90;99.90
44647;DHT22;56315;-33.902;151.160;2023-03-24T07:33:24;23.80;99.90
44647;DHT22;56315;-33.902;151.160;2023-03-24T07:35:55;23.80;99.90
44647;DHT22;56315;-33.902;151.160;2023-03-24T07:38:24;23.80;99.90
44647;DHT22;56315;-33.902;151.160;2023-03-24T07:40:52;23.80;99.90
44647;DHT22;56315;-33.902;151.160;2023-03-24T07:43:19;23.70;99.90
44647;DHT22;56315;-33.902;151.160;2023-03-24T07:45:47;23.60;99.90
44647;DHT22;56315;-33.902;151.160;2023-03-24T07:48:14;23.60;99.90
44647;DHT22;56315;-33.902;151.160;2023-03-24T07:50:42;23.60;99.90
44647;DHT22;56315;-33.902;151.160;2023-03-24T07:53:09;23.60;99.90
44647;DHT22;56315;-33.902;151.160;2023-03-24T07:55:39;23.50;99.90
44647;DHT22;56315;-33.902;151.160;2023-03-24T07:58:07;23.50;99.90
44647;DHT22;56315;-33.902;151.160;2023-03-24T08:00:34;23.40;99.90
44647;DHT22;56315;-33.902;151.160;2023-03-24T08:03:03;23.30;99.90
44647;DHT22;56315;-33.902;151.160;2023-03-24T08:05:30;23.20;99.90
44647;DHT22;56315;-33.902;151.160;2023-03-24T08:07:57;23.10;99.90
44647;DHT22;56315;-33.902;151.160;2023-03-24T08:10:27;23.10;99.90
44647;DHT22;56315;-33.902;151.160;2023-03-24T08:12:56;23.00;99.90
44647;DHT22;56315;-33.902;151.160;2023-03-24T08:15:24;23.00;99.90
44647;DHT22;56315;-33.902;151.160;2023-03-24T08:17:53;23.00;99.90
44647;DHT22;56315;-33.902;151.160;2023-03-24T08:20:22;22.90;99.90
44647;DHT22;56315;-33.902;151.160;2023-03-24T08:22:50;22.90;99.90
44647;DHT22;56315;-33.902;151.160;2023-03-24T08:25:22;22.90;99.90
44647;DHT22;56315;-33.902;151.160;2023-03-24T08:27:49;22.90;99.90
44647;DHT22;56315;-33.902;151.160;2023-03-24T08:30:19;22.90;99.90
44647;DHT22;56315;-33.902;151.160;2023-03-24T08:32:59;22.90;99.90
44647;DHT22;56315;-33.902;151.160;2023-03-24T08:35:29;22.90;99.90
44647;DHT22;56315;-33.902;151.160;2023-03-24T08:37:57;22.90;99.90
44647;DHT22;56315;-33.902;151.160;2023-03-24T08:40:26;22.80;99.90
44647;DHT22;56315;-33.902;151.160;2023-03-24T08:42:56;22.80;99.90
44647;DHT22;56315;-33.902;151.160;2023-03-24T08:45:29;22.80;99.90
44647;DHT22;56315;-33.902;151.160;2023-03-24T08:47:59;22.70;99.90
44647;DHT22;56315;-33.902;151.160;2023-03-24T08:50:29;22.70;99.90
44647;DHT22;56315;-33.902;151.160;2023-03-24T08:52:57;22.70;99.90
44647;DHT22;56315;-33.902;151.160;2023-03-24T08:55:25;22.70;99.90
44647;DHT22;56315;-33.902;151.160;2023-03-24T08:57:53;22.70;99.90
44647;DHT22;56315;-33.902;151.160;2023-03-24T09:00:21;22.70;99.90
44647;DHT22;56315;-33.902;151.160;2023-03-24T09:02:51;22.70;99.90
44647;DHT22;56315;-33.902;151.160;2023-03-24T09:05:21;22.70;99.90
44647;DHT22;56315;-33.902;151.160;2023-03-24T09:07:49;22.70;99.90
44647;DHT22;56315;-33.902;151.160;2023-03-24T09:10:17;22.70;99.90
44647;DHT22;56315;-33.902;151.160;2023-03-24T09:12:46;22.60;99.90
44647;DHT22;56315;-33.902;151.160;2023-03-24T09:15:13;22.60;99.90
44647;DHT22;56315;-33.902;151.160;2023-03-24T09:17:41;22.60;99.90
44647;DHT22;56315;-33.902;151.160;2023-03-24T09:20:12;22.50;99.90
44647;DHT22;56315;-33.902;151.160;2023-03-24T09:22:41;22.40;99.90
44647;DHT22;56315;-33.902;151.160;2023-03-24T09:25:11;22.40;99.90
44647;DHT22;56315;-33.902;151.160;2023-03-24T09:27:38;22.40;99.90
44647;DHT22;56315;-33.902;151.160;2023-03-24T09:30:07;22.40;99.90
44647;DHT22;56315;-33.902;151.160;2023-03-24T09:32:35;22.40;99.90
44647;DHT22;56315;-33.902;151.160;2023-03-24T09:35:03;22.40;99.90
44647;DHT22;56315;-33.902;151.160;2023-03-24T09:37:31;22.40;99.90
44647;DHT22;56315;-33.902;151.160;2023-03-24T09:39:59;22.40;99.90
44647;DHT22;56315;-33.902;151.160;2023-03-24T09:42:39;22.30;99.90
44647;DHT22;56315;-33.902;151.160;2023-03-24T09:45:14;22.30;99.90
44647;DHT22;56315;-33.902;151.160;2023-03-24T09:50:24;22.20;99.90
44647;DHT22;56315;-33.902;151.160;2023-03-24T09:52:59;22.20;99.90
44647;DHT22;56315;-33.902;151.160;2023-03-24T09:55:29;22.20;99.90
44647;DHT22;56315;-33.902;151.160;2023-03-24T09:58:03;22.10;99.90
44647;DHT22;56315;-33.902;151.160;2023-03-24T10:00:32;22.10;99.90
44647;DHT22;56315;-33.902;151.160;2023-03-24T10:03:20;22.10;99.90
44647;DHT22;56315;-33.902;151.160;2023-03-24T10:06:08;22.10;99.90
44647;DHT22;56315;-33.902;151.160;2023-03-24T10:08:39;22.10;99.90
44647;DHT22;56315;-33.902;151.160;2023-03-24T10:16:26;22.00;99.90
44647;DHT22;56315;-33.902;151.160;2023-03-24T10:22:13;22.00;99.90
44647;DHT22;56315;-33.902;151.160;2023-03-24T10:24:50;22.00;99.90
44647;DHT22;56315;-33.902;151.160;2023-03-24T10:27:24;22.00;99.90
44647;DHT22;56315;-33.902;151.160;2023-03-24T10:30:07;21.90;99.90
44647;DHT22;56315;-33.902;151.160;2023-03-24T10:32:37;22.00;99.90
44647;DHT22;56315;-33.902;151.160;2023-03-24T10:35:06;21.90;99.90
44647;DHT22;56315;-33.902;151.160;2023-03-24T10:37:40;21.90;99.90
44647;DHT22;56315;-33.902;151.160;2023-03-24T10:40:19;21.90;99.90
44647;DHT22;56315;-33.902;151.160;2023-03-24T10:42:49;21.90;99.90
44647;DHT22;56315;-33.902;151.160;2023-03-24T10:45:49;21.90;99.90
44647;DHT22;56315;-33.902;151.160;2023-03-24T10:48:44;21.90;99.90
44647;DHT22;56315;-33.902;151.160;2023-03-24T10:51:19;21.90;99.90
44647;DHT22;56315;-33.902;151.160;2023-03-24T10:53:47;21.90;99.90
44647;DHT22;56315;-33.902;151.160;2023-03-24T10:56:36;21.90;99.90
44647;DHT22;56315;-33.902;151.160;2023-03-24T10:59:27;21.90;99.90
44647;DHT22;56315;-33.902;151.160;2023-03-24T11:07:38;21.70;99.90
44647;DHT22;56315;-33.902;151.160;2023-03-24T11:10:14;21.70;99.90
44647;DHT22;56315;-33.902;151.160;2023-03-24T11:12:58;21.70;99.90
44647;DHT22;56315;-33.902;151.160;2023-03-24T11:15:33;21.60;99.90
44647;DHT22;56315;-33.902;151.160;2023-03-24T11:20:45;21.60;99.90
44647;DHT22;56315;-33.902;151.160;2023-03-24T11:23:28;21.60;99.90
44647;DHT22;56315;-33.902;151.160;2023-03-24T11:26:18;21.60;99.90
44647;DHT22;56315;-33.902;151.160;2023-03-24T11:28:53;21.60;99.90
44647;DHT22;56315;-33.902;151.160;2023-03-24T11:31:32;21.60;99.90
44647;DHT22;56315;-33.902;151.160;2023-03-24T11:36:45;21.70;99.90
44647;DHT22;56315;-33.902;151.160;2023-03-24T11:39:27;21.70;99.90
44647;DHT22;56315;-33.902;151.160;2023-03-24T11:44:47;21.70;99.90
44647;DHT22;56315;-33.902;151.160;2023-03-24T11:47:31;21.70;99.90
44647;DHT22;56315;-33.902;151.160;2023-03-24T11:50:17;21.70;99.90
44647;DHT22;56315;-33.902;151.160;2023-03-24T12:04:08;21.70;99.90
44647;DHT22;56315;-33.902;151.160;2023-03-24T12:09:48;21.70;99.90
44647;DHT22;56315;-33.902;151.160;2023-03-24T12:12:28;21.60;99.90
44647;DHT22;56315;-33.902;151.160;2023-03-24T12:20:30;21.60;99.90
44647;DHT22;56315;-33.902;151.160;2023-03-24T12:25:38;21.50;99.90
44647;DHT22;56315;-33.902;151.160;2023-03-24T12:30:53;21.60;99.90
44647;DHT22;56315;-33.902;151.160;2023-03-24T12:52:22;21.40;99.90
44647;DHT22;56315;-33.902;151.160;2023-03-24T12:55:17;21.40;99.90
44647;DHT22;56315;-33.902;151.160;2023-03-24T13:01:00;21.50;99.90
44647;DHT22;56315;-33.902;151.160;2023-03-24T13:03:42;21.50;99.90
44647;DHT22;56315;-33.902;151.160;2023-03-24T13:06:31;21.50;99.90
44647;DHT22;56315;-33.902;151.160;2023-03-24T13:09:09;21.60;99.90
44647;DHT22;56315;-33.902;151.160;2023-03-24T13:14:18;21.70;99.90
44647;DHT22;56315;-33.902;151.160;2023-03-24T13:16:47;21.70;99.90
44647;DHT22;56315;-33.902;151.160;2023-03-24T13:19:23;21.70;99.90
44647;DHT22;56315;-33.902;151.160;2023-03-24T13:21:51;21.70;99.90
44647;DHT22;56315;-33.902;151.160;2023-03-24T13:24:20;21.70;99.90
44647;DHT22;56315;-33.902;151.160;2023-03-24T13:40:28;21.80;99.90
44647;DHT22;56315;-33.902;151.160;2023-03-24T13:43:00;21.80;99.90
44647;DHT22;56315;-33.902;151.160;2023-03-24T13:45:42;21.80;99.90
44647;DHT22;56315;-33.902;151.160;2023-03-24T13:50:40;21.80;99.90
44647;DHT22;56315;-33.902;151.160;2023-03-24T13:53:13;21.80;99.90
44647;DHT22;56315;-33.902;151.160;2023-03-24T13:55:48;21.80;99.90
44647;DHT22;56315;-33.902;151.160;2023-03-24T13:58:23;21.80;99.90
44647;DHT22;56315;-33.902;151.160;2023-03-24T14:03:39;21.90;99.90
44647;DHT22;56315;-33.902;151.160;2023-03-24T14:06:09;21.90;99.90
44647;DHT22;56315;-33.902;151.160;2023-03-24T14:14:19;22.00;99.90
44647;DHT22;56315;-33.902;151.160;2023-03-24T14:22:32;22.00;99.90
44647;DHT22;56315;-33.902;151.160;2023-03-24T14:27:49;22.00;99.90
44647;DHT22;56315;-33.902;151.160;2023-03-24T14:30:26;22.00;99.90
44647;DHT22;56315;-33.902;151.160;2023-03-24T14:32:59;21.90;99.90
44647;DHT22;56315;-33.902;151.160;2023-03-24T14:35:41;21.90;99.90
44647;DHT22;56315;-33.902;151.160;2023-03-24T14:40:48;21.80;99.90
44647;DHT22;56315;-33.902;151.160;2023-03-24T14:43:27;21.70;99.90
44647;DHT22;56315;-33.902;151.160;2023-03-24T14:46:04;21.70;99.90
44647;DHT22;56315;-33.902;151.160;2023-03-24T14:48:39;21.70;99.90
44647;DHT22;56315;-33.902;151.160;2023-03-24T14:51:30;21.60;99.90
44647;DHT22;56315;-33.902;151.160;2023-03-24T14:56:45;21.50;99.90
44647;DHT22;56315;-33.902;151.160;2023-03-24T15:02:02;21.40;99.90
44647;DHT22;56315;-33.902;151.160;2023-03-24T15:04:31;21.30;99.90
44647;DHT22;56315;-33.902;151.160;2023-03-24T15:07:03;21.30;99.90
44647;DHT22;56315;-33.902;151.160;2023-03-24T15:09:35;21.20;99.90
44647;DHT22;56315;-33.902;151.160;2023-03-24T15:12:04;21.10;99.90
44647;DHT22;56315;-33.902;151.160;2023-03-24T15:14:33;21.10;99.90
44647;DHT22;56315;-33.902;151.160;2023-03-24T15:17:05;21.10;99.90
44647;DHT22;56315;-33.902;151.160;2023-03-24T15:19:35;21.00;99.90
44647;DHT22;56315;-33.902;151.160;2023-03-24T15:22:03;21.00;99.90
44647;DHT22;56315;-33.902;151.160;2023-03-24T15:24:36;20.90;99.90
44647;DHT22;56315;-33.902;151.160;2023-03-24T15:29:35;20.90;99.90
44647;DHT22;56315;-33.902;151.160;2023-03-24T15:32:03;20.80;99.90
44647;DHT22;56315;-33.902;151.160;2023-03-24T15:34:36;20.80;99.90
44647;DHT22;56315;-33.902;151.160;2023-03-24T15:37:18;20.70;99.90
44647;DHT22;56315;-33.902;151.160;2023-03-24T15:39:50;20.80;99.90
44647;DHT22;56315;-33.902;151.160;2023-03-24T15:42:20;20.70;99.90
44647;DHT22;56315;-33.902;151.160;2023-03-24T15:44:48;20.70;99.90
44647;DHT22;56315;-33.902;151.160;2023-03-24T15:47:21;20.60;99.90
44647;DHT22;56315;-33.902;151.160;2023-03-24T15:49:57;20.50;99.90
44647;DHT22;56315;-33.902;151.160;2023-03-24T15:52:36;20.50;99.90
44647;DHT22;56315;-33.902;151.160;2023-03-24T15:55:33;20.40;99.90
44647;DHT22;56315;-33.902;151.160;2023-03-24T15:58:19;20.40;99.90
44647;DHT22;56315;-33.902;151.160;2023-03-24T16:00:47;20.30;99.90
44647;DHT22;56315;-33.902;151.160;2023-03-24T16:03:17;20.30;99.90
44647;DHT22;56315;-33.902;151.160;2023-03-24T16:05:48;20.20;99.90
44647;DHT22;56315;-33.902;151.160;2023-03-24T16:08:33;20.20;99.90
44647;DHT22;56315;-33.902;151.160;2023-03-24T16:11:11;20.10;99.90
44647;DHT22;56315;-33.902;151.160;2023-03-24T16:13:41;20.10;99.90
44647;DHT22;56315;-33.902;151.160;2023-03-24T16:18:43;20.10;99.90
44647;DHT22;56315;-33.902;151.160;2023-03-24T16:21:24;20.10;99.90
44647;DHT22;56315;-33.902;151.160;2023-03-24T16:23:53;20.10;99.90
44647;DHT22;56315;-33.902;151.160;2023-03-24T16:26:22;20.10;99.90
44647;DHT22;56315;-33.902;151.160;2023-03-24T16:28:51;20.00;99.90
44647;DHT22;56315;-33.902;151.160;2023-03-24T16:31:23;20.00;99.90
44647;DHT22;56315;-33.902;151.160;2023-03-24T16:33:51;20.00;99.90
44647;DHT22;56315;-33.902;151.160;2023-03-24T16:36:19;19.90;99.90
44647;DHT22;56315;-33.902;151.160;2023-03-24T16:38:48;19.90;99.90
44647;DHT22;56315;-33.902;151.160;2023-03-24T16:41:16;19.90;99.90
44647;DHT22;56315;-33.902;151.160;2023-03-24T16:43:44;19.80;99.90
44647;DHT22;56315;-33.902;151.160;2023-03-24T16:46:15;19.80;99.90
44647;DHT22;56315;-33.902;151.160;2023-03-24T16:48:43;19.80;99.90
44647;DHT22;56315;-33.902;151.160;2023-03-24T16:51:15;19.70;99.90
44647;DHT22;56315;-33.902;151.160;2023-03-24T16:53:44;19.70;99.90
44647;DHT22;56315;-33.902;151.160;2023-03-24T16:56:17;19.60;99.90
44647;DHT22;56315;-33.902;151.160;2023-03-24T16:58:44;19.60;99.90
44647;DHT22;56315;-33.902;151.160;2023-03-24T17:01:31;19.60;99.90
44647;DHT22;56315;-33.902;151.160;2023-03-24T17:04:07;19.70;99.90
44647;DHT22;56315;-33.902;151.160;2023-03-24T17:06:40;19.70;99.90
44647;DHT22;56315;-33.902;151.160;2023-03-24T17:09:09;19.70;99.90
44647;DHT22;56315;-33.902;151.160;2023-03-24T17:11:44;19.70;99.90
44647;DHT22;56315;-33.902;151.160;2023-03-24T17:14:13;19.70;99.90
44647;DHT22;56315;-33.902;151.160;2023-03-24T17:16:43;19.70;99.90
44647;DHT22;56315;-33.902;151.160;2023-03-24T17:19:12;19.60;99.90
44647;DHT22;56315;-33.902;151.160;2023-03-24T17:21:43;19.60;99.90
44647;DHT22;56315;-33.902;151.160;2023-03-24T17:24:12;19.60;99.90
44647;DHT22;56315;-33.902;151.160;2023-03-24T17:26:40;19.70;99.90
44647;DHT22;56315;-33.902;151.160;2023-03-24T17:29:12;19.70;99.90
44647;DHT22;56315;-33.902;151.160;2023-03-24T17:31:39;19.70;99.90
44647;DHT22;56315;-33.902;151.160;2023-03-24T17:34:12;19.70;99.90
44647;DHT22;56315;-33.902;151.160;2023-03-24T17:36:40;19.70;99.90
44647;DHT22;56315;-33.902;151.160;2023-03-24T17:39:09;19.70;99.90
44647;DHT22;56315;-33.902;151.160;2023-03-24T17:41:40;19.60;99.90
44647;DHT22;56315;-33.902;151.160;2023-03-24T17:44:07;19.60;99.90
44647;DHT22;56315;-33.902;151.160;2023-03-24T17:46:35;19.60;99.90
44647;DHT22;56315;-33.902;151.160;2023-03-24T17:49:02;19.60;99.90
44647;DHT22;56315;-33.902;151.160;2023-03-24T17:51:29;19.60;99.90
44647;DHT22;56315;-33.902;151.160;2023-03-24T17:53:57;19.50;99.90
44647;DHT22;56315;-33.902;151.160;2023-03-24T17:56:25;19.50;99.90
44647;DHT22;56315;-33.902;151.160;2023-03-24T17:58:55;19.40;99.90
44647;DHT22;56315;-33.902;151.160;2023-03-24T18:01:24;19.30;99.90
44647;DHT22;56315;-33.902;151.160;2023-03-24T18:03:55;19.30;99.90
44647;DHT22;56315;-33.902;151.160;2023-03-24T18:06:22;19.20;99.90
44647;DHT22;56315;-33.902;151.160;2023-03-24T18:08:53;19.20;99.90
44647;DHT22;56315;-33.902;151.160;2023-03-24T18:11:20;19.20;99.90